• Join FlightAware (Why Join?)
  • Login
  • US Flag 
09:57AM EDT


 

Airport Tracker/Info


-or-


 

Live Flight TrackerFlight Track Log ✈ RPA1218 ✈ 22-Apr-2013 ✈ KPHX - KDEN

Flight Track Log - Related Links

Times and Time Zones

All times are in EDT time to prevent confusion due to time zone crossing. See the RPA1218 flight status page for this flight to view local times or setup timezone preferences in your user account.

Time Position Orientation Groundspeed Altitude Reporting Facility
EDT Latitude Longitude Course Direction KTS MPH feet Rate Location/Type
07:46PM 33.4333 -112.0333 270° West 168 193 1,700  Level Phoenix TRACON
07:46PM 33.4333 -112.0667 270° West 166 191 2,400 1,440 Climbing Phoenix TRACON
07:47PM 33.4339 -112.0911 272° West 188 216 3,200 1,980 Climbing Albuquerque Center
07:48PM 33.4472 -112.1717 281° West 265 305 5,500 2,580 Climbing Albuquerque Center
07:49PM 33.5114 -112.1403 22° Northeast 291 335 8,500 2,640 Climbing Albuquerque Center
07:50PM 33.5614 -112.0589 54° Northeast 307 353 11,000 2,400 Climbing Albuquerque Center
07:51PM 33.6336 -111.9894 39° Northeast 336 387 13,500 2,520 Climbing Albuquerque Center
07:52PM 33.7158 -111.9381 27° Northeast 335 386 16,200 2,700 Climbing Albuquerque Center
07:53PM 33.8178 -111.8747 27° Northeast 351 404 19,100 2,400 Climbing Albuquerque Center
07:54PM 33.9069 -111.8186 28° Northeast 361 415 21,200 2,100 Climbing Albuquerque Center
07:55PM 34.0064 -111.7561 28° Northeast 373 429 23,500 1,860 Climbing Albuquerque Center
07:56PM 34.0953 -111.6808 35° Northeast 392 451 25,100 1,500 Climbing Albuquerque Center
07:57PM 34.1664 -111.5983 44° Northeast 410 472 26,600 1,680 Climbing Albuquerque Center
07:58PM 34.2506 -111.5042 43° Northeast 414 476 28,600 1,920 Climbing Albuquerque Center
07:59PM 34.3483 -111.3922 43° Northeast 407 468 30,600 1,680 Climbing Albuquerque Center
08:00PM 34.4311 -111.2964 44° Northeast 410 472 32,100 1,140 Climbing Albuquerque Center
08:01PM 34.5133 -111.2019 43° Northeast 410 472 33,000 420 Climbing Albuquerque Center
08:02PM 34.5947 -111.1092 43° Northeast 404 465 33,000  Level Albuquerque Center
08:03PM 34.6758 -111.0142 44° Northeast 404 465 33,000  Level Albuquerque Center
08:04PM 34.7583 -110.9206 43° Northeast 405 466 33,000  Level Albuquerque Center
08:05PM 34.8389 -110.8256 44° Northeast 405 466 33,000  Level Albuquerque Center
08:06PM 34.9353 -110.7150 43° Northeast 400 460 33,000  Level Albuquerque Center
08:07PM 35.0106 -110.6242 45° Northeast 398 458 33,000  Level Albuquerque Center
08:08PM 35.0983 -110.5211 44° Northeast 394 453 33,000  Level Albuquerque Center
08:09PM 35.1750 -110.4317 44° Northeast 396 456 33,000  Level Albuquerque Center
08:10PM 35.2517 -110.3414 44° Northeast 398 458 33,000  Level Albuquerque Center
08:11PM 35.3394 -110.2375 44° Northeast 395 455 33,000  Level Albuquerque Center
08:12PM 35.4156 -110.1464 44° Northeast 398 458 33,000  Level Albuquerque Center
08:13PM 35.5039 -110.0417 44° Northeast 396 456 33,000  Level Albuquerque Center
08:14PM 35.5789 -109.9508 45° Northeast 396 456 33,000  Level Albuquerque Center
08:15PM 35.6667 -109.8467 44° Northeast 393 452 33,000  Level Albuquerque Center
08:16PM 35.7347 -109.7453 50° Northeast 399 459 33,000  Level Albuquerque Center
08:17PM 35.8006 -109.6403 52° Northeast 402 463 33,000  Level Albuquerque Center
08:18PM 35.8772 -109.5175 52° Northeast 405 466 33,000  Level Albuquerque Center
08:19PM 35.9428 -109.4136 52° Northeast 401 461 33,000  Level Albuquerque Center
08:20PM 36.0197 -109.2894 53° Northeast 405 466 33,000  Level Albuquerque Center
08:21PM 36.0858 -109.1833 52° Northeast 405 466 33,000  Level Albuquerque Center
08:23PM 36.1706 -109.0678 48° Northeast 404 465 33,000  Level Denver Center
08:24PM 36.2642 -108.9603 43° Northeast 405 466 33,000  Level Denver Center
08:25PM 36.3425 -108.8700 43° Northeast 400 460 33,000  Level Denver Center
08:26PM 36.4203 -108.7792 43° Northeast 398 458 33,000  Level Denver Center
08:27PM 36.5117 -108.6736 43° Northeast 401 461 33,000  Level Denver Center
08:28PM 36.5769 -108.5964 44° Northeast 403 464 33,000  Level Denver Center
08:29PM 36.6828 -108.4717 43° Northeast 409 471 33,000  Level Denver Center
08:30PM 36.7617 -108.3803 43° Northeast 406 467 33,000  Level Denver Center
08:31PM 36.8408 -108.2878 43° Northeast 406 467 33,000  Level Denver Center
08:32PM 36.9306 -108.1811 44° Northeast 400 460 33,000  Level Denver Center
08:33PM 37.0100 -108.0872 43° Northeast 406 467 33,000  Level Denver Center
08:34PM 37.1036 -107.9783 43° Northeast 413 475 33,000  Level Denver Center
08:35PM 37.1825 -107.8825 44° Northeast 412 474 33,000  Level Denver Center
08:36PM 37.2739 -107.7733 44° Northeast 407 468 33,000  Level Denver Center
08:37PM 37.3539 -107.6781 43° Northeast 412 474 33,000  Level Denver Center
08:38PM 37.4339 -107.5833 43° Northeast 416 479 33,000  Level Denver Center
08:39PM 37.5253 -107.4717 44° Northeast 411 473 33,000  Level Denver Center
08:40PM 37.6036 -107.3778 44° Northeast 405 466 33,000  Level Denver Center
08:41PM 37.6961 -107.2669 43° Northeast 410 472 33,000  Level Denver Center
08:42PM 37.7736 -107.1708 44° Northeast 410 472 33,000  Level Denver Center
08:43PM 37.8525 -107.0725 45° Northeast 411 473 33,000  Level Denver Center
08:44PM 37.9461 -106.9597 44° Northeast 415 478 33,000  Level Denver Center
08:45PM 38.0269 -106.8606 44° Northeast 420 483 33,000  Level Denver Center
08:46PM 38.1203 -106.7458 44° Northeast 420 483 33,000  Level Denver Center
08:47PM 38.1981 -106.6472 45° Northeast 415 478 33,000 -420 Level Denver Center
08:48PM 38.2908 -106.5328 44° Northeast 417 480 32,200 -1,380 Descending Denver Center
08:49PM 38.3908 -106.4089 44° Northeast 499 574 30,200 -2,040 Descending Denver Center
08:50PM 38.4867 -106.2872 45° Northeast 491 565 28,100 -1,620 Descending Denver Center
08:51PM 38.5797 -106.1708 44° Northeast 474 545 27,000 -840 Descending Denver Center
08:52PM 38.6694 -106.0558 45° Northeast 468 539 26,400 -660 Descending Denver Center
08:53PM 38.7711 -105.9278 44° Northeast 460 529 25,700 -720 Descending Denver Center
08:54PM 38.8567 -105.8186 45° Northeast 455 524 25,000 -780 Descending Denver Center
08:55PM 38.9531 -105.6950 45° Northeast 440 506 24,200 -780 Descending Denver Center
08:57PM 39.0383 -105.5869 45° Northeast 446 513 23,500 -840 Descending Denver Center
08:58PM 39.1286 -105.4711 45° Northeast 445 512 22,600 -1,740 Descending Denver Center
08:59PM 39.2203 -105.3517 45° Northeast 429 494 20,000 -2,160 Descending Denver Center
09:00PM 39.2725 -105.2300 61° Northeast 398 458 18,200 -1,620 Descending Denver Center
09:01PM 39.2964 -105.1006 77° East 376 433 16,800 -1,260 Descending Denver Center
09:02PM 39.3181 -104.9814 77° East 320 368 15,700 -1,020 Descending Denver Center
09:03PM 39.3353 -104.8900 76° East 267 307 14,800 -1,140 Descending Denver Center
09:04PM 39.3564 -104.8061 72° East 248 285 13,400 -840 Descending Denver Center
09:05PM 39.3786 -104.7253 70° East 222 255 13,100 -180 Descending Denver Center
09:06PM 39.4242 -104.6694 43° Northeast 236 272 13,100 -540 Level Denver Center
09:07PM 39.4872 -104.6644 North 227 261 12,100 -1,140 Descending Denver Center
09:08PM 39.5514 -104.6639 360° North 215 247 10,800 -960 Descending Denver Center
09:09PM 39.5992 -104.6631 North 172 198 10,200 -780 Descending Denver Center
09:10PM 39.6447 -104.6628 360° North 165 190 9,300 -960 Descending Denver Center
09:11PM 39.6939 -104.6622 360° North 164 189 8,300 -960 Descending Denver Center
09:12PM 39.7383 -104.6617 North 161 185 7,400 -900 Descending Denver Center
09:13PM 39.7792 -104.6611 North 149 171 6,500 -840 Descending Denver Center
09:14PM 39.8203 -104.6608 360° North 140 161 5,700 -540 Descending Denver Center
09:15PM 39.8478 -104.6625 357° North 95 109 5,400 -300 Descending Denver Center
09:17PM 39.8500 -104.6667 10° North  Level FlightAware Approximate
09:24PM 39.8617 -104.6732 10° North  Level Estimated